Time;durP1;ratioP1;P1;durP2;ratioP2;P2;SDS_P1;SDS_P2;PMS_P1;PMS_P2;Temp;Humidity;BMP_temperature;BMP_pressure;BME280_temperature;BME280_humidity;BME280_pressure;Samples;Min_cycle;Max_cycle;Signal;HPM_P1;HPM_P2
2024/03/19 00:02:02;;;;;;;9.50;7.83;;;10.80;99.90;;;;;;5031783;28;20182;-88
2024/03/19 00:04:27;;;;;;;9.20;7.43;;;10.80;99.90;;;;;;5031486;28;20175;-88
2024/03/19 00:06:53;;;;;;;11.37;8.07;;;10.70;99.90;;;;;;5031331;28;20266;-88
2024/03/19 00:09:18;;;;;;;11.50;8.60;;;10.60;99.90;;;;;;5030957;28;20187;-88
2024/03/19 00:11:44;;;;;;;12.83;8.80;;;10.50;99.90;;;;;;5032881;28;20218;-87
2024/03/19 00:14:10;;;;;;;10.10;7.50;;;10.50;99.90;;;;;;5031427;28;20649;-87
2024/03/19 00:16:36;;;;;;;12.17;8.10;;;10.50;99.90;;;;;;5041965;28;20179;-88
2024/03/19 00:19:02;;;;;;;9.53;7.80;;;10.50;99.90;;;;;;5033103;28;20215;-87
2024/03/19 00:21:28;;;;;;;10.27;7.83;;;10.50;99.90;;;;;;5039399;28;20237;-86
2024/03/19 00:23:54;;;;;;;8.20;7.40;;;10.50;99.90;;;;;;5055424;28;20182;-85
2024/03/19 00:26:21;;;;;;;10.83;8.17;;;10.40;99.90;;;;;;5032823;28;20272;-88
2024/03/19 00:28:46;;;;;;;12.20;7.17;;;10.50;99.90;;;;;;5034518;28;20195;-87
2024/03/19 00:31:12;;;;;;;13.67;7.97;;;10.50;99.90;;;;;;5035675;28;20590;-87
2024/03/19 00:33:38;;;;;;;10.27;7.40;;;10.50;99.90;;;;;;5036935;28;20275;-87
2024/03/19 00:36:09;;;;;;;11.33;8.00;;;10.50;99.90;;;;;;5034887;28;20266;-88
2024/03/19 00:38:35;;;;;;;7.87;7.07;;;10.50;99.90;;;;;;5035933;28;20555;-87
2024/03/19 00:41:01;;;;;;;11.07;7.90;;;10.50;99.90;;;;;;5035232;28;20209;-87
2024/03/19 00:43:27;;;;;;;11.87;7.17;;;10.50;99.90;;;;;;5034533;28;20186;-88
2024/03/19 00:45:53;;;;;;;8.47;7.57;;;10.50;99.90;;;;;;5015652;28;20168;-88
2024/03/19 00:48:18;;;;;;;10.27;7.60;;;10.40;99.90;;;;;;5049524;28;20207;-87
2024/03/19 00:50:45;;;;;;;9.50;7.23;;;10.40;99.90;;;;;;5049357;28;20283;-87
2024/03/19 00:53:10;;;;;;;8.30;7.13;;;10.30;99.90;;;;;;5015286;28;20180;-88
2024/03/19 00:55:38;;;;;;;11.57;8.00;;;10.20;99.90;;;;;;5048118;28;20187;-87
2024/03/19 00:58:03;;;;;;;13.00;7.17;;;10.10;99.90;;;;;;5048505;28;20578;-87
2024/03/19 01:00:29;;;;;;;10.23;7.33;;;10.00;99.90;;;;;;5048329;28;20168;-87
2024/03/19 01:02:55;;;;;;;8.73;7.77;;;10.00;99.90;;;;;;5047790;28;20185;-87
2024/03/19 01:05:21;;;;;;;12.57;7.93;;;9.90;99.90;;;;;;5015993;28;20199;-87
2024/03/19 01:07:46;;;;;;;13.20;8.70;;;9.90;99.90;;;;;;5034969;28;20274;-87
2024/03/19 01:10:13;;;;;;;11.20;8.93;;;9.80;99.90;;;;;;5034431;28;20175;-87
2024/03/19 01:12:39;;;;;;;12.00;8.60;;;9.80;99.90;;;;;;5033635;28;20195;-87
2024/03/19 01:15:06;;;;;;;13.00;8.63;;;9.70;99.90;;;;;;5033654;28;20171;-88
2024/03/19 01:17:35;;;;;;;13.90;8.00;;;9.70;99.90;;;;;;5035606;28;20712;-88
2024/03/19 01:20:04;;;;;;;10.53;9.43;;;9.70;99.90;;;;;;5034400;28;20207;-86
2024/03/19 01:22:29;;;;;;;14.30;8.30;;;9.70;99.90;;;;;;5033847;28;20212;-88
2024/03/19 01:24:55;;;;;;;21.57;8.83;;;9.70;99.90;;;;;;5035528;28;20246;-87
2024/03/19 01:27:21;;;;;;;12.63;8.80;;;9.80;99.90;;;;;;5017298;28;20220;-87
2024/03/19 01:29:47;;;;;;;12.23;8.73;;;9.80;99.90;;;;;;5034242;28;20176;-87
2024/03/19 01:32:14;;;;;;;13.73;8.37;;;9.80;99.90;;;;;;5034009;28;20175;-87
2024/03/19 01:34:40;;;;;;;13.03;9.13;;;9.90;99.90;;;;;;5033818;28;20183;-87
2024/03/19 01:37:05;;;;;;;17.33;9.90;;;9.90;99.90;;;;;;5034159;28;20258;-87
2024/03/19 01:39:32;;;;;;;12.67;9.40;;;9.80;99.90;;;;;;5032809;28;20253;-87
2024/03/19 01:41:58;;;;;;;13.33;8.90;;;9.90;99.90;;;;;;5033882;28;20179;-87
2024/03/19 01:44:23;;;;;;;10.83;7.83;;;9.90;99.90;;;;;;5033285;28;20180;-87
2024/03/19 01:46:49;;;;;;;13.63;8.27;;;9.80;99.90;;;;;;5033890;28;20629;-88
2024/03/19 01:49:16;;;;;;;10.87;8.57;;;9.80;99.90;;;;;;5033402;28;20182;-87
2024/03/19 01:51:42;;;;;;;12.93;9.40;;;9.80;99.90;;;;;;5034990;28;20179;-87
2024/03/19 01:54:09;;;;;;;11.20;8.20;;;9.80;99.90;;;;;;5033228;28;20549;-87
2024/03/19 01:56:35;;;;;;;12.27;8.90;;;9.70;99.90;;;;;;5033560;28;20653;-88
2024/03/19 01:59:01;;;;;;;14.43;9.73;;;9.70;99.90;;;;;;5033353;28;20284;-88
2024/03/19 02:01:27;;;;;;;10.80;8.37;;;9.70;99.90;;;;;;5032702;28;20195;-88
2024/03/19 02:03:53;;;;;;;16.87;9.43;;;9.60;99.90;;;;;;5034268;28;20188;-87
2024/03/19 02:06:20;;;;;;;13.73;9.03;;;9.60;99.90;;;;;;5033286;28;20266;-87
2024/03/19 02:09:06;;;;;;;17.80;8.67;;;9.50;99.90;;;;;;5033636;28;20196;-87
2024/03/19 02:11:36;;;;;;;14.20;9.03;;;9.50;99.90;;;;;;5035032;28;20195;-87
2024/03/19 02:14:04;;;;;;;10.93;9.27;;;9.40;99.90;;;;;;5033481;28;20203;-87
2024/03/19 02:16:30;;;;;;;13.60;9.57;;;9.30;99.90;;;;;;5025968;28;20204;-87
2024/03/19 02:19:04;;;;;;;13.23;9.50;;;9.30;99.90;;;;;;5046812;28;20215;-88
2024/03/19 02:21:30;;;;;;;11.20;9.23;;;9.20;99.90;;;;;;5047998;28;20478;-89
2024/03/19 02:23:57;;;;;;;10.63;8.67;;;9.20;99.90;;;;;;5047907;28;20271;-88
2024/03/19 02:26:27;;;;;;;12.43;9.30;;;9.10;99.90;;;;;;5046805;28;20172;-87
2024/03/19 02:28:55;;;;;;;13.33;9.20;;;9.10;99.90;;;;;;5016035;28;20199;-87
2024/03/19 02:31:24;;;;;;;12.63;9.40;;;9.10;99.90;;;;;;5034291;28;20176;-88
2024/03/19 02:33:53;;;;;;;13.07;8.90;;;9.10;99.90;;;;;;5035045;28;20199;-88
2024/03/19 02:36:19;;;;;;;14.40;9.43;;;9.10;99.90;;;;;;5034091;28;20662;-87
2024/03/19 02:38:44;;;;;;;11.60;8.90;;;9.10;99.90;;;;;;5033662;28;20263;-87
2024/03/19 02:41:10;;;;;;;11.13;8.80;;;9.10;99.90;;;;;;5033473;28;20172;-87
2024/03/19 02:43:39;;;;;;;13.67;9.13;;;9.10;99.90;;;;;;5015974;28;20259;-87
2024/03/19 02:46:06;;;;;;;13.83;9.17;;;9.20;99.90;;;;;;5013516;28;20243;-87
2024/03/19 02:48:32;;;;;;;14.30;9.23;;;9.20;99.90;;;;;;5013686;28;20222;-87
2024/03/19 02:50:58;;;;;;;16.63;9.30;;;9.30;99.90;;;;;;5014744;28;20180;-87
2024/03/19 02:53:26;;;;;;;13.13;9.30;;;9.30;99.90;;;;;;5013739;28;20184;-87
2024/03/19 02:55:52;;;;;;;11.53;9.13;;;9.40;99.90;;;;;;5013657;28;20187;-88
2024/03/19 02:58:17;;;;;;;14.33;9.53;;;9.40;99.90;;;;;;5013003;28;20641;-87
2024/03/19 03:00:43;;;;;;;10.53;8.87;;;9.30;99.90;;;;;;5014914;28;20180;-87
2024/03/19 03:03:10;;;;;;;10.83;8.73;;;9.40;99.90;;;;;;5029796;28;20199;-88
2024/03/19 03:05:37;;;;;;;14.70;9.27;;;9.40;99.90;;;;;;5017828;28;20179;-87
2024/03/19 03:08:03;;;;;;;11.23;9.97;;;9.50;99.90;;;;;;5032915;28;20307;-87
2024/03/19 03:10:29;;;;;;;13.30;8.73;;;9.50;99.90;;;;;;5049873;28;20183;-87
2024/03/19 03:12:55;;;;;;;16.77;10.63;;;9.50;99.90;;;;;;5049455;28;20277;-87
2024/03/19 03:15:22;;;;;;;16.33;10.03;;;9.50;99.90;;;;;;5049269;28;20183;-87
2024/03/19 03:17:49;;;;;;;14.30;9.07;;;9.60;99.90;;;;;;5016585;28;20210;-88
2024/03/19 03:20:16;;;;;;;11.90;8.70;;;9.60;99.90;;;;;;5032363;28;20214;-87
2024/03/19 03:22:42;;;;;;;13.40;9.27;;;9.60;99.90;;;;;;5033010;28;20313;-87
2024/03/19 03:25:11;;;;;;;10.13;8.60;;;9.60;99.90;;;;;;5012008;28;20183;-87
2024/03/19 03:27:40;;;;;;;11.53;8.70;;;9.50;99.90;;;;;;5013654;28;20184;-88
2024/03/19 03:30:10;;;;;;;11.10;8.70;;;9.50;99.90;;;;;;5013643;28;20188;-87
2024/03/19 03:32:37;;;;;;;12.83;9.07;;;9.50;99.90;;;;;;5013766;28;20168;-87
2024/03/19 03:35:03;;;;;;;11.93;8.73;;;9.50;99.90;;;;;;5012097;28;20177;-87
2024/03/19 03:37:29;;;;;;;11.67;9.53;;;9.60;99.90;;;;;;5014894;28;20198;-87
2024/03/19 03:39:57;;;;;;;11.63;8.80;;;9.60;99.90;;;;;;5033238;28;20288;-87
2024/03/19 03:42:23;;;;;;;10.50;9.03;;;9.60;99.90;;;;;;5032520;28;20183;-87
2024/03/19 03:44:49;;;;;;;11.77;8.70;;;9.60;99.90;;;;;;5032510;28;20202;-87
2024/03/19 03:47:15;;;;;;;13.70;9.17;;;9.60;99.90;;;;;;5031663;28;20566;-87
2024/03/19 03:49:40;;;;;;;13.07;9.07;;;9.70;99.90;;;;;;5015388;28;20214;-88
2024/03/19 03:52:07;;;;;;;12.47;9.57;;;9.60;99.90;;;;;;5031160;28;20556;-87
2024/03/19 03:54:33;;;;;;;13.20;8.90;;;9.60;99.90;;;;;;5031760;28;20175;-88
2024/03/19 03:56:59;;;;;;;11.13;8.30;;;9.60;99.90;;;;;;5031404;28;20195;-87
2024/03/19 03:59:24;;;;;;;14.03;9.60;;;9.70;99.90;;;;;;5031753;28;20203;-87
2024/03/19 04:01:50;;;;;;;12.40;9.60;;;9.70;99.90;;;;;;5031415;28;20182;-87
2024/03/19 04:04:16;;;;;;;11.57;8.87;;;9.60;99.90;;;;;;5048107;28;20542;-88
2024/03/19 04:06:41;;;;;;;13.90;9.33;;;9.60;99.90;;;;;;5030577;28;20175;-87
2024/03/19 04:09:07;;;;;;;19.33;9.40;;;9.60;99.90;;;;;;5031186;28;20182;-87
2024/03/19 04:11:33;;;;;;;10.20;9.13;;;9.50;99.90;;;;;;5048265;28;20258;-87
2024/03/19 04:14:11;;;;;;;13.50;9.77;;;9.50;99.90;;;;;;5032960;28;20198;-88
2024/03/19 04:16:37;;;;;;;11.37;9.53;;;9.50;99.90;;;;;;5040826;28;20179;-87
2024/03/19 04:19:03;;;;;;;13.03;8.93;;;9.40;99.90;;;;;;5069586;28;20229;-85
2024/03/19 04:21:29;;;;;;;13.57;9.60;;;9.30;99.90;;;;;;5038553;28;20230;-87
2024/03/19 04:23:55;;;;;;;13.00;10.13;;;9.30;99.90;;;;;;5034563;28;20676;-87
2024/03/19 04:26:20;;;;;;;14.33;9.53;;;9.30;99.90;;;;;;5034926;28;20182;-85
2024/03/19 04:28:46;;;;;;;13.07;8.97;;;9.20;99.90;;;;;;5034520;28;20269;-87
2024/03/19 04:31:12;;;;;;;12.30;9.47;;;9.10;99.90;;;;;;5035568;28;20186;-87
2024/03/19 04:33:37;;;;;;;14.27;9.90;;;9.00;99.90;;;;;;5033083;28;20666;-87
2024/03/19 04:36:03;;;;;;;14.43;10.00;;;9.00;99.90;;;;;;5031260;28;20262;-87
2024/03/19 04:38:29;;;;;;;16.33;10.47;;;9.00;99.90;;;;;;5032497;28;20218;-87
2024/03/19 04:40:54;;;;;;;12.43;9.80;;;8.90;99.90;;;;;;5031261;28;20172;-87
2024/03/19 04:43:20;;;;;;;17.77;10.73;;;8.90;99.90;;;;;;5031136;28;20633;-87
2024/03/19 04:45:46;;;;;;;11.63;10.00;;;8.80;99.90;;;;;;5011341;28;20279;-87
2024/03/19 04:48:12;;;;;;;16.73;10.67;;;8.80;99.90;;;;;;5013368;28;20722;-88
2024/03/19 04:50:38;;;;;;;14.83;10.60;;;8.70;99.90;;;;;;5012322;28;20233;-87
2024/03/19 04:53:03;;;;;;;16.43;10.63;;;8.70;99.90;;;;;;5011262;28;20203;-86
2024/03/19 04:55:29;;;;;;;16.07;10.73;;;8.60;99.90;;;;;;5011279;28;20617;-86
2024/03/19 04:57:55;;;;;;;15.93;10.90;;;8.50;99.90;;;;;;5011567;28;20246;-87
2024/03/19 05:00:21;;;;;;;16.43;10.90;;;8.50;99.90;;;;;;5012889;28;20211;-87
2024/03/19 05:02:47;;;;;;;16.70;10.80;;;8.50;99.90;;;;;;5011459;28;20269;-87
2024/03/19 05:05:12;;;;;;;14.47;11.23;;;8.40;99.90;;;;;;5016242;28;20812;-87
2024/03/19 05:07:39;;;;;;;13.27;10.23;;;8.40;99.90;;;;;;5032479;28;20573;-86
2024/03/19 05:10:05;;;;;;;18.80;11.10;;;8.40;99.90;;;;;;5032728;28;20176;-87
2024/03/19 05:12:31;;;;;;;14.80;11.03;;;8.40;99.90;;;;;;5034851;28;20293;-86
2024/03/19 05:14:56;;;;;;;17.27;10.73;;;8.50;99.90;;;;;;5035198;28;20268;-87
2024/03/19 05:17:22;;;;;;;14.53;11.00;;;8.50;99.90;;;;;;5034299;28;20699;-88
2024/03/19 05:19:47;;;;;;;15.77;11.13;;;8.50;99.90;;;;;;5034214;28;20261;-87
2024/03/19 05:22:13;;;;;;;17.13;11.20;;;8.50;99.90;;;;;;5036221;28;20168;-88
2024/03/19 05:24:39;;;;;;;14.83;10.97;;;8.50;99.90;;;;;;5034563;28;20552;-87
2024/03/19 05:27:04;;;;;;;14.77;10.80;;;8.50;99.90;;;;;;5034085;28;20196;-87
2024/03/19 05:29:32;;;;;;;17.33;11.90;;;8.50;99.90;;;;;;5034439;28;20179;-87
2024/03/19 05:31:58;;;;;;;20.20;11.83;;;8.40;99.90;;;;;;5051488;28;20167;-84
2024/03/19 05:34:24;;;;;;;15.20;11.37;;;8.40;99.90;;;;;;5058462;28;20176;-85
2024/03/19 05:36:49;;;;;;;18.13;11.43;;;8.40;99.90;;;;;;5002262;28;20183;-88
2024/03/19 05:39:15;;;;;;;16.33;11.30;;;8.40;99.90;;;;;;5016462;28;20704;-87
2024/03/19 05:41:41;;;;;;;15.73;10.93;;;8.40;99.90;;;;;;5026967;28;20230;-87
2024/03/19 05:44:07;;;;;;;15.27;11.00;;;8.40;99.90;;;;;;5034196;28;20187;-87
2024/03/19 05:46:33;;;;;;;17.93;11.13;;;8.40;99.90;;;;;;5033937;28;20171;-88
2024/03/19 05:48:59;;;;;;;15.27;10.37;;;8.40;99.90;;;;;;5034524;28;20207;-88
2024/03/19 05:51:24;;;;;;;20.70;11.30;;;8.40;99.90;;;;;;5035681;28;20176;-87
2024/03/19 05:53:50;;;;;;;18.43;10.83;;;8.40;99.90;;;;;;5034356;28;20199;-88
2024/03/19 05:56:17;;;;;;;14.07;11.10;;;8.40;99.90;;;;;;5033593;28;20191;-89
2024/03/19 05:58:43;;;;;;;14.40;10.77;;;8.40;99.90;;;;;;5034044;28;20215;-89
2024/03/19 06:01:09;;;;;;;15.10;10.27;;;8.40;99.90;;;;;;5035394;28;20232;-89
2024/03/19 06:03:34;;;;;;;17.00;11.27;;;8.40;99.90;;;;;;5034478;28;20658;-88
2024/03/19 06:06:08;;;;;;;14.83;10.17;;;8.40;99.90;;;;;;5033135;28;20179;-88
2024/03/19 06:08:35;;;;;;;15.50;11.13;;;8.40;99.90;;;;;;5030173;28;20257;-89
2024/03/19 06:11:00;;;;;;;14.63;11.60;;;8.40;99.90;;;;;;5013836;28;20234;-88
2024/03/19 06:13:27;;;;;;;17.97;11.40;;;8.50;99.90;;;;;;5014397;28;20204;-88
2024/03/19 06:15:53;;;;;;;19.87;11.20;;;8.60;99.90;;;;;;5012914;28;20648;-88
2024/03/19 06:18:19;;;;;;;18.13;11.53;;;8.70;99.90;;;;;;5013007;28;20211;-88
2024/03/19 06:20:48;;;;;;;14.50;10.40;;;8.80;99.90;;;;;;5014283;28;20643;-88
2024/03/19 06:23:14;;;;;;;13.93;11.23;;;9.00;99.90;;;;;;5015159;28;20212;-88
2024/03/19 06:25:41;;;;;;;18.70;11.93;;;9.10;99.90;;;;;;5014620;28;20184;-88
2024/03/19 06:28:06;;;;;;;18.37;11.33;;;9.20;99.90;;;;;;5014357;28;20196;-88
2024/03/19 06:30:33;;;;;;;15.43;12.70;;;9.40;99.90;;;;;;5015063;28;20278;-89
2024/03/19 06:32:59;;;;;;;18.10;11.47;;;9.60;99.90;;;;;;5012457;28;20191;-88
2024/03/19 06:35:25;;;;;;;17.90;11.43;;;9.70;99.90;;;;;;5019627;28;20191;-87
2024/03/19 06:37:51;;;;;;;20.43;12.13;;;9.90;99.90;;;;;;5033639;28;20195;-88
2024/03/19 06:40:17;;;;;;;19.53;12.33;;;10.00;99.90;;;;;;5034284;28;20218;-87
2024/03/19 06:42:44;;;;;;;18.03;11.20;;;10.10;99.90;;;;;;5032968;28;20595;-87
2024/03/19 06:45:11;;;;;;;16.20;11.37;;;10.30;99.90;;;;;;5032299;28;20290;-87
2024/03/19 06:47:46;;;;;;;12.80;9.87;;;10.40;99.90;;;;;;5032837;28;20198;-93
2024/03/19 06:50:14;;;;;;;14.30;10.40;;;10.50;99.90;;;;;;5032086;28;20190;-88
2024/03/19 06:52:45;;;;;;;11.93;9.80;;;10.50;99.90;;;;;;5048786;28;20179;-88
2024/03/19 06:55:11;;;;;;;15.30;9.97;;;10.60;99.90;;;;;;5033808;28;20175;-87
2024/03/19 06:57:39;;;;;;;13.40;10.43;;;10.60;99.90;;;;;;5045590;28;20215;-87
2024/03/19 07:00:19;;;;;;;15.90;11.40;;;10.70;99.90;;;;;;5012504;28;20215;-87
2024/03/19 07:02:46;;;;;;;14.47;9.80;;;10.80;99.90;;;;;;5017159;28;20664;-87
2024/03/19 07:05:12;;;;;;;15.73;9.93;;;11.00;99.90;;;;;;5032065;28;20180;-88
2024/03/19 07:07:58;;;;;;;14.20;8.60;;;11.10;99.90;;;;;;5034532;28;20267;-91
2024/03/19 07:10:24;;;;;;;11.77;9.10;;;11.20;99.90;;;;;;5032585;28;20216;-85
2024/03/19 07:12:54;;;;;;;11.93;9.10;;;11.30;99.90;;;;;;5032730;28;20191;-84
2024/03/19 07:15:20;;;;;;;13.10;9.47;;;11.30;99.90;;;;;;5031601;28;20629;-88
2024/03/19 07:17:50;;;;;;;13.73;9.87;;;11.40;99.90;;;;;;5031357;28;20229;-88
2024/03/19 07:20:18;;;;;;;13.67;9.53;;;11.40;99.90;;;;;;5024354;28;20665;-88
2024/03/19 07:22:45;;;;;;;12.17;9.77;;;11.40;99.90;;;;;;5026361;28;20222;-88
2024/03/19 07:25:12;;;;;;;14.67;10.20;;;11.40;99.90;;;;;;5030064;28;20180;-88
2024/03/19 07:27:40;;;;;;;17.03;10.30;;;11.40;99.90;;;;;;5031498;28;20195;-88
2024/03/19 07:30:07;;;;;;;14.43;9.60;;;11.50;99.90;;;;;;5031797;28;20242;-88
2024/03/19 07:32:32;;;;;;;11.90;9.73;;;11.50;99.90;;;;;;5031482;28;20179;-88
2024/03/19 07:34:58;;;;;;;18.30;11.03;;;11.60;99.90;;;;;;5031199;28;20567;-88
2024/03/19 07:37:24;;;;;;;11.90;9.83;;;11.60;99.90;;;;;;5030757;28;20203;-88
2024/03/19 07:39:55;;;;;;;11.67;9.30;;;11.70;99.90;;;;;;5031424;28;20246;-87
2024/03/19 07:42:20;;;;;;;13.57;9.77;;;11.70;99.90;;;;;;5032722;28;20253;-89
2024/03/19 07:44:47;;;;;;;13.60;9.63;;;11.70;99.90;;;;;;5031743;28;20211;-87
2024/03/19 07:47:13;;;;;;;12.20;9.50;;;11.80;99.90;;;;;;5031395;28;20222;-88
2024/03/19 07:49:39;;;;;;;12.87;9.20;;;11.80;99.90;;;;;;5032021;28;20187;-88
2024/03/19 07:52:05;;;;;;;12.77;9.10;;;11.80;99.90;;;;;;5030618;28;20189;-88
2024/03/19 07:54:31;;;;;;;13.47;8.87;;;11.80;99.90;;;;;;5031123;28;20274;-88
2024/03/19 07:56:57;;;;;;;16.47;9.67;;;11.90;99.90;;;;;;5031469;28;20176;-88
2024/03/19 07:59:22;;;;;;;11.10;9.03;;;11.90;99.90;;;;;;5030393;28;20207;-88
2024/03/19 08:01:49;;;;;;;10.93;8.80;;;11.90;99.90;;;;;;5046962;28;20586;-89
2024/03/19 08:04:15;;;;;;;12.57;8.60;;;12.00;99.90;;;;;;5030355;28;20190;-88
2024/03/19 08:06:41;;;;;;;11.93;8.60;;;12.00;99.90;;;;;;5044535;28;20211;-87
2024/03/19 08:09:08;;;;;;;13.47;9.87;;;12.00;99.90;;;;;;5043690;28;20267;-87
2024/03/19 08:11:34;;;;;;;10.70;9.20;;;12.00;99.90;;;;;;5044859;28;20271;-87
2024/03/19 08:14:00;;;;;;;14.83;10.03;;;12.00;99.90;;;;;;5031516;28;20688;-87
2024/03/19 08:16:26;;;;;;;15.90;9.67;;;12.10;99.90;;;;;;5028500;28;20697;-88
2024/03/19 08:18:53;;;;;;;13.20;9.40;;;12.10;99.90;;;;;;5026568;28;20338;-87
2024/03/19 08:21:21;;;;;;;13.40;9.07;;;12.10;99.90;;;;;;5030554;28;20190;-88
2024/03/19 08:23:50;;;;;;;10.57;8.83;;;12.20;99.90;;;;;;5031235;28;20183;-87
2024/03/19 08:26:15;;;;;;;11.93;9.53;;;12.30;99.90;;;;;;5022441;28;20212;-87
2024/03/19 08:28:44;;;;;;;11.60;9.07;;;12.40;99.90;;;;;;4994870;28;20547;-87
2024/03/19 08:31:10;;;;;;;11.50;8.83;;;12.40;99.90;;;;;;5020430;28;20176;-89
2024/03/19 08:33:38;;;;;;;11.10;9.10;;;12.40;99.90;;;;;;5054198;28;20183;-88
2024/03/19 08:36:04;;;;;;;11.40;8.87;;;12.40;99.90;;;;;;5038669;28;20183;-87
2024/03/19 08:38:31;;;;;;;13.93;9.17;;;12.30;99.90;;;;;;5012509;28;20207;-88
2024/03/19 08:40:58;;;;;;;12.57;8.63;;;12.40;99.90;;;;;;5011317;28;20177;-87
2024/03/19 08:43:24;;;;;;;13.07;8.87;;;12.40;99.90;;;;;;5044024;28;20223;-88
2024/03/19 08:46:01;;;;;;;13.30;9.07;;;12.40;99.90;;;;;;5010979;28;20564;-92
2024/03/19 08:48:27;;;;;;;15.07;9.40;;;12.50;99.90;;;;;;5013708;28;20196;-88
2024/03/19 08:50:53;;;;;;;16.50;9.73;;;12.50;99.90;;;;;;5028996;28;20516;-87
2024/03/19 08:53:19;;;;;;;9.77;8.67;;;12.50;99.90;;;;;;5032880;28;20179;-87
2024/03/19 08:55:54;;;;;;;12.77;9.07;;;12.60;99.90;;;;;;5033138;28;20188;-87
2024/03/19 08:58:20;;;;;;;10.90;9.50;;;12.80;99.90;;;;;;5033671;28;20206;-88
2024/03/19 09:00:45;;;;;;;14.37;9.40;;;12.90;99.90;;;;;;5034181;28;20175;-87
2024/03/19 09:03:11;;;;;;;11.80;9.57;;;13.10;99.90;;;;;;5033737;28;20249;-87
2024/03/19 09:05:37;;;;;;;11.73;8.90;;;13.30;99.90;;;;;;5033805;28;20548;-87
2024/03/19 09:08:03;;;;;;;10.87;9.07;;;13.50;99.90;;;;;;5034933;28;20197;-87
2024/03/19 09:10:30;;;;;;;10.30;9.30;;;13.70;99.90;;;;;;5033499;28;20306;-87
2024/03/19 09:12:55;;;;;;;14.57;9.77;;;13.90;99.90;;;;;;5033572;28;20195;-87
2024/03/19 09:15:22;;;;;;;11.37;9.17;;;14.20;99.90;;;;;;5049944;28;20187;-87
2024/03/19 09:17:48;;;;;;;13.77;9.57;;;14.50;99.90;;;;;;5050913;28;20204;-88
2024/03/19 09:20:14;;;;;;;12.30;9.17;;;14.90;99.90;;;;;;5033792;28;20566;-87
2024/03/19 09:22:40;;;;;;;11.70;9.03;;;15.30;99.90;;;;;;5051816;28;20179;-88
2024/03/19 09:25:07;;;;;;;13.43;8.13;;;15.80;99.90;;;;;;5035170;28;20456;-87
2024/03/19 09:27:32;;;;;;;10.60;9.00;;;16.30;99.90;;;;;;5036010;28;20244;-87
2024/03/19 09:30:00;;;;;;;13.17;9.23;;;16.90;99.90;;;;;;5034333;28;20191;-88
2024/03/19 09:32:25;;;;;;;14.03;8.13;;;17.60;99.90;;;;;;5035402;28;20182;-87
2024/03/19 09:34:51;;;;;;;15.53;8.40;;;18.20;99.90;;;;;;5059026;28;20185;-86
2024/03/19 09:37:17;;;;;;;11.70;8.05;;;18.60;99.90;;;;;;5074811;28;20187;-86
2024/03/19 09:39:42;;;;;;;13.52;8.02;;;19.10;99.90;;;;;;5074970;28;20249;-85
2024/03/19 09:42:18;;;;;;;13.35;7.97;;;19.30;99.90;;;;;;5041403;28;20441;-86
2024/03/19 09:44:44;;;;;;;11.38;7.95;;;19.60;99.90;;;;;;5042610;28;20661;-85
2024/03/19 09:47:16;;;;;;;11.07;7.82;;;19.80;99.90;;;;;;5058915;28;20191;-86
2024/03/19 09:49:42;;;;;;;12.00;7.82;;;20.00;99.90;;;;;;5058223;28;20294;-85
2024/03/19 09:52:08;;;;;;;12.80;8.80;;;20.20;99.90;;;;;;5053140;23;20224;-73
2024/03/19 09:54:34;;;;;;;14.07;7.75;;;20.30;99.90;;;;;;5014689;28;20183;-73
2024/03/19 09:57:03;;;;;;;10.40;7.53;;;20.00;99.90;;;;;;5014237;28;20172;-71
2024/03/19 09:59:30;;;;;;;11.68;7.40;;;19.80;99.90;;;;;;5013583;28;20291;-72
2024/03/19 10:01:57;;;;;;;9.48;7.45;;;19.60;99.90;;;;;;5013300;28;20699;-72
2024/03/19 10:04:24;;;;;;;12.70;7.83;;;19.20;99.90;;;;;;5013928;28;20180;-72
2024/03/19 10:06:50;;;;;;;13.20;7.68;;;18.90;99.90;;;;;;5013909;28;20707;-73
2024/03/19 10:09:17;;;;;;;13.13;7.93;;;18.80;99.90;;;;;;5013423;28;20180;-72
2024/03/19 10:11:44;;;;;;;13.67;8.07;;;18.90;99.90;;;;;;5013448;28;20257;-72
2024/03/19 10:14:10;;;;;;;12.37;7.03;;;19.00;99.90;;;;;;5012841;28;20168;-73
2024/03/19 10:16:43;;;;;;;10.60;6.70;;;19.20;99.90;;;;;;5012074;28;20238;-72
2024/03/19 10:19:12;;;;;;;12.25;7.43;;;19.40;99.90;;;;;;5012980;28;20258;-73
2024/03/19 10:21:39;;;;;;;12.40;6.60;;;19.60;99.90;;;;;;5012793;28;20703;-72
2024/03/19 10:24:13;;;;;;;10.10;6.47;;;19.90;99.90;;;;;;5012983;28;20176;-73
2024/03/19 10:26:39;;;;;;;8.40;6.10;;;20.30;99.90;;;;;;5013001;28;20231;-72
2024/03/19 10:29:05;;;;;;;10.73;7.03;;;20.70;99.90;;;;;;5013204;28;20173;-72
2024/03/19 10:31:30;;;;;;;12.30;6.93;;;21.00;99.90;;;;;;5012957;28;20233;-72
2024/03/19 10:33:59;;;;;;;11.55;7.32;;;21.10;99.90;;;;;;5013361;28;20165;-72
2024/03/19 10:36:32;;;;;;;10.25;6.97;;;21.00;99.90;;;;;;5012937;28;20263;-73
2024/03/19 10:38:58;;;;;;;10.63;6.13;;;20.80;99.90;;;;;;5013195;28;20226;-73
2024/03/19 10:41:26;;;;;;;8.05;5.55;;;20.70;99.90;;;;;;5012854;28;20172;-72
2024/03/19 10:43:53;;;;;;;10.02;6.53;;;20.40;99.90;;;;;;5013345;28;20179;-72
2024/03/19 10:46:19;;;;;;;13.60;5.75;;;20.10;99.90;;;;;;5012996;28;20172;-72
2024/03/19 10:48:45;;;;;;;8.95;5.55;;;19.90;99.90;;;;;;5013795;28;20222;-72
2024/03/19 10:51:11;;;;;;;10.23;5.38;;;19.90;99.90;;;;;;5013564;28;20176;-72
2024/03/19 10:53:38;;;;;;;8.80;5.72;;;19.70;99.90;;;;;;5013021;28;20540;-72
2024/03/19 10:56:05;;;;;;;11.63;5.53;;;19.60;99.90;;;;;;5002061;28;20615;-72
2024/03/19 10:58:35;;;;;;;11.48;4.40;;;19.50;99.90;;;;;;4994254;28;20646;-73
2024/03/19 11:01:02;;;;;;;6.05;4.57;;;19.60;99.90;;;;;;4994263;28;20172;-72
2024/03/19 11:03:28;;;;;;;7.55;5.25;;;19.70;99.90;;;;;;4995259;28;20189;-72
2024/03/19 11:06:00;;;;;;;11.85;5.00;;;19.80;99.90;;;;;;4995458;28;20273;-72
2024/03/19 11:08:26;;;;;;;6.15;4.15;;;19.80;99.90;;;;;;5010965;28;20596;-72
2024/03/19 11:11:02;;;;;;;9.48;4.13;;;19.90;99.90;;;;;;5017521;28;20256;-72
2024/03/19 11:13:34;;;;;;;6.53;4.65;;;19.90;99.90;;;;;;5011731;28;20187;-73
2024/03/19 11:16:00;;;;;;;6.97;4.53;;;20.00;99.90;;;;;;5011987;28;20183;-73
2024/03/19 11:18:29;;;;;;;10.18;4.45;;;20.10;99.90;;;;;;5009424;28;20176;-73
2024/03/19 11:20:56;;;;;;;7.05;4.93;;;20.30;99.90;;;;;;4993151;28;20177;-72
2024/03/19 11:23:30;;;;;;;7.70;4.07;;;20.20;99.90;;;;;;4992683;28;20196;-73
2024/03/19 11:26:01;;;;;;;7.00;3.85;;;20.10;99.90;;;;;;4992846;28;20169;-73
2024/03/19 11:28:30;;;;;;;6.57;3.72;;;20.20;99.90;;;;;;4995682;28;20272;-72
2024/03/19 11:31:02;;;;;;;7.55;3.80;;;20.30;99.90;;;;;;5012852;28;20180;-72
2024/03/19 11:33:28;;;;;;;7.38;3.67;;;20.60;99.90;;;;;;5012260;28;20271;-73
2024/03/19 11:35:54;;;;;;;5.05;3.67;;;20.90;99.90;;;;;;5012292;28;20689;-73
2024/03/19 11:38:20;;;;;;;6.63;3.90;;;21.20;99.60;;;;;;5012522;28;20179;-73
2024/03/19 11:40:47;;;;;;;5.55;3.38;;;21.20;99.90;;;;;;5012481;28;20611;-72
2024/03/19 11:43:14;;;;;;;6.10;3.72;;;21.20;99.90;;;;;;5011970;28;20184;-73
2024/03/19 11:45:42;;;;;;;4.88;3.40;;;21.20;98.70;;;;;;5011793;28;20677;-73
2024/03/19 11:48:18;;;;;;;6.95;3.35;;;21.20;99.30;;;;;;5011373;28;20684;-73
2024/03/19 11:50:56;;;;;;;6.15;3.58;;;21.10;98.90;;;;;;5012278;28;20183;-73
2024/03/19 11:53:24;;;;;;;7.13;3.53;;;20.90;98.10;;;;;;5012034;28;20207;-73
2024/03/19 11:55:55;;;;;;;10.38;4.55;;;20.90;96.90;;;;;;5013457;28;20172;-73
2024/03/19 11:58:22;;;;;;;3.80;2.97;;;20.70;98.50;;;;;;5012285;28;20172;-73
2024/03/19 12:00:48;;;;;;;7.05;3.10;;;20.90;99.90;;;;;;5012400;28;20227;-73
2024/03/19 12:03:18;;;;;;;3.83;2.92;;;20.90;97.40;;;;;;5012115;28;20192;-73
2024/03/19 12:05:48;;;;;;;6.97;3.85;;;20.80;97.30;;;;;;5011589;28;20172;-75
2024/03/19 12:08:20;;;;;;;5.15;3.53;;;20.80;99.90;;;;;;5012606;28;20544;-74
2024/03/19 12:10:47;;;;;;;6.00;3.70;;;21.20;99.30;;;;;;5012245;28;20207;-73
2024/03/19 12:13:13;;;;;;;5.10;2.88;;;21.40;99.00;;;;;;5012312;28;20684;-73
2024/03/19 12:15:40;;;;;;;5.20;3.63;;;21.70;98.80;;;;;;5011854;28;20172;-73
2024/03/19 12:18:07;;;;;;;6.15;4.50;;;22.00;99.70;;;;;;5012258;28;20172;-73
2024/03/19 12:20:34;;;;;;;6.28;4.40;;;22.10;96.90;;;;;;5012336;28;20207;-72
2024/03/19 12:23:00;;;;;;;6.28;4.18;;;22.00;95.40;;;;;;5013283;28;20192;-72
2024/03/19 12:25:29;;;;;;;6.70;4.00;;;22.10;97.80;;;;;;5014760;28;20315;-72
2024/03/19 12:27:54;;;;;;;9.80;4.10;;;22.10;98.20;;;;;;5015743;28;20221;-73
2024/03/19 12:30:21;;;;;;;5.30;3.85;;;22.30;96.80;;;;;;5015803;28;20589;-73
2024/03/19 12:35:31;;;;;;;5.88;3.75;;;22.20;96.10;;;;;;5015529;28;20172;-72
2024/03/19 12:37:56;;;;;;;6.05;3.63;;;22.40;94.90;;;;;;5015284;28;20192;-72
2024/03/19 12:40:24;;;;;;;5.35;3.40;;;22.30;92.90;;;;;;5014950;28;20568;-72
2024/03/19 12:42:51;;;;;;;7.20;3.55;;;22.40;94.60;;;;;;5015049;28;20448;-72